Paron, Arkansas
Current Conditions -  °F | °C
As of 6:53 PM on Monday 26 Jan 2015 (Local Time) from KHOT Reporting Station
Clear Clear  
Wind Chill: 56°   Ceiling: Unl
Heat Index: 56°   Visibility: 10mi
Dew Point: 35°   Wind: 7mph
Humidity: 45%   Direction: 270°W
Pressure: 30"   Gusts: NA
Location:  34.77°N, 92.76°W
Report Text: KHOT 270053Z AUTO 27006KT 10SM CLR 13/02 A3000 RMK AO2 SLP160 T01330017
Loading
Personal Weather Stations






























Interactive Weather Map New forecast layout! Learn more

10-Day Weather Forecast

Advertisements
Track Severe Weather on mobile